South Woodstock, Vermont
Current Conditions -  °F | °C
As of 7:53 PM on Friday 24 Oct 2014 (Local Time) from KLEB Reporting Station
Overcast Overcast  
Wind Chill: 44°   Ceiling: 1700
Heat Index: 48°   Visibility: 10mi
Dew Point: 39°   Wind: 8mph
Humidity: 71%   Direction: 350°N
Pressure: 29.78"   Gusts: NA
Location:  43.57°N, 72.53°W
Report Text: KLEB 242353Z 35007KT 10SM OVC017 09/04 A2978 RMK AO2 SLP087 T00890039 10100 20083 51011
Loading
Personal Weather Stations






























Interactive Weather Map
Tropical Storm Tracking
New forecast layout! Learn more

10-Day Weather Forecast

Advertisements
Track Severe Weather on mobile